上海/浦東 の空港の天気 - METARとTAF

上海浦東国際空港 ( ZSPD / PVG ) - 中国 上海市
飛行場実況気象(Metar)
観測時間08/11 15:00 CST (08/11 07:00 UTC)
風向・風速南 6m/s
視程10km以上
天気現象
なし
気温33℃
湿度67%
気圧1006hPa
METARZSPD 110700Z 17006MPS CAVOK 33/26 Q1006 NOSIG
過去の天気等 Google飛行場航空写真 Wunderground天気予報

過去48時間のMETAR

飛行場予報(TAF)
発表時間: 8/11 11:16 CST (8/11 03:16 UTC)
予報対象時間: 11日14時 CST ~ 12日14時 CST
風向・風速南 4m/s
視程10km以上
全天の8割程度の雲 雲底高度 610m
TAF ZSPD 110316Z 1106/1206 18004MPS 9999 BKN020 TX34/1107Z TN28/1120Z